Terminal Aerodrome Forecast
Issued by NWS La Crosse, WI

Home | Current Version | Previous Version | Text Only | Print | Product List | Glossary On
Versions: 1 2 3 4 5 6 7 8 9 10 11 12 13 14 15 16 17 18 19 20 21 22 23 24 25 26 27 28 29 30
000
FTUS43 KARX 312330
TAFRST
TAF
KRST 312330Z 0100/0124 29008KT P6SM SKC
     FM010600 25006KT P6SM VCSH SCT070
     FM011100 26006KT P6SM SKC
     FM011400 29009KT P6SM SKC=

USA.gov is the U.S. government's official web portal to all federal, state and local government web resources and services.